Time;durP1;ratioP1;P1;durP2;ratioP2;P2;SDS_P1;SDS_P2;PMS_P1;PMS_P2;Temp;Humidity;BMP_temperature;BMP_pressure;BME280_temperature;BME280_humidity;BME280_pressure;Samples;Min_cycle;Max_cycle;Signal;HPM_P1;HPM_P2
2022/10/19 00:01:39;;;;;;;13.77;11.00;;;12.10;99.90;;;12.52;97.62;98964.50;5121840;27;20485;-79
2022/10/19 00:04:07;;;;;;;12.70;9.77;;;12.10;99.90;;;12.50;97.11;98969.25;5127881;27;20580;-80
2022/10/19 00:06:36;;;;;;;10.93;9.47;;;11.90;99.90;;;12.56;96.50;98972.00;5128764;27;20458;-78
2022/10/19 00:09:07;;;;;;;10.60;8.97;;;11.90;99.90;;;12.51;96.02;98969.06;5132953;27;20443;-79
2022/10/19 00:11:37;;;;;;;13.80;9.40;;;12.00;99.90;;;12.49;95.66;98967.59;5138178;27;21032;-78
2022/10/19 00:14:05;;;;;;;13.97;10.37;;;12.00;99.90;;;12.46;96.37;98972.38;5133390;27;20546;-79
2022/10/19 00:16:38;;;;;;;10.10;9.10;;;12.00;99.90;;;12.43;95.32;98972.81;5130548;27;20458;-77
2022/10/19 00:19:11;;;;;;;10.27;9.27;;;12.00;99.90;;;12.33;95.50;98977.75;5127701;27;20978;-78
2022/10/19 00:21:40;;;;;;;10.60;9.50;;;11.90;99.90;;;12.34;95.62;98984.84;5134995;27;20885;-78
2022/10/19 00:24:08;;;;;;;10.97;9.70;;;11.80;99.90;;;12.05;96.66;98959.72;5126001;27;20901;-78
2022/10/19 00:26:36;;;;;;;12.83;8.83;;;11.70;99.90;;;12.16;96.50;98983.53;5125652;27;20506;-78
2022/10/19 00:29:04;;;;;;;9.63;8.30;;;11.60;99.90;;;12.26;96.36;98985.03;5121069;27;20449;-77
2022/10/19 00:31:31;;;;;;;10.83;9.07;;;11.70;99.90;;;12.05;95.62;98957.03;5128199;27;20461;-77
2022/10/19 00:34:00;;;;;;;9.80;8.27;;;11.80;99.90;;;12.28;96.11;98989.25;5112919;27;20453;-78
2022/10/19 00:36:31;;;;;;;15.80;8.73;;;11.80;99.90;;;12.00;96.97;98973.88;5112326;28;20449;-77
2022/10/19 00:38:59;;;;;;;11.93;8.67;;;11.80;99.90;;;12.04;97.32;98979.72;5111255;27;20460;-77
2022/10/19 00:41:29;;;;;;;12.33;8.77;;;11.70;99.90;;;12.14;97.74;98979.38;5124667;27;20842;-78
2022/10/19 00:44:00;;;;;;;26.73;11.17;;;11.70;99.90;;;12.09;98.27;98988.09;5116446;27;20452;-78
2022/10/19 00:46:29;;;;;;;27.57;10.13;;;11.70;99.90;;;12.19;98.32;98993.16;5125162;27;20464;-78
2022/10/19 00:49:03;;;;;;;22.33;11.07;;;11.80;99.90;;;12.08;98.74;98977.47;5131475;27;20446;-79
2022/10/19 00:51:39;;;;;;;22.23;8.50;;;11.80;99.90;;;12.23;98.61;98980.84;5133144;27;20458;-79
2022/10/19 00:54:08;;;;;;;86.87;13.97;;;11.80;99.90;;;12.15;97.78;98975.63;5144934;27;20463;-79
2022/10/19 00:56:39;;;;;;;53.23;10.30;;;11.80;99.90;;;11.95;98.14;98943.84;5142068;27;20463;-79
2022/10/19 00:59:08;;;;;;;41.97;12.67;;;11.80;99.90;;;12.28;97.63;98981.09;5130056;27;20491;-80
2022/10/19 01:01:35;;;;;;;171.13;20.70;;;11.90;99.90;;;12.28;97.38;98977.56;5130781;27;20547;-79
2022/10/19 01:04:05;;;;;;;58.90;10.50;;;11.90;99.90;;;12.19;98.04;98975.00;5128883;27;20458;-80
2022/10/19 01:06:33;;;;;;;60.63;12.80;;;11.80;99.90;;;12.25;98.07;98986.09;5141015;27;20519;-79
2022/10/19 01:09:01;;;;;;;20.20;8.70;;;11.80;99.90;;;12.24;98.31;98973.59;5126981;27;20478;-79
2022/10/19 01:11:40;;;;;;;54.97;12.87;;;11.80;99.90;;;12.28;98.01;98981.09;5125283;27;20451;-80
2022/10/19 01:14:22;;;;;;;35.73;10.10;;;11.70;99.90;;;12.33;97.89;98983.19;5128246;27;21103;-86
2022/10/19 01:16:57;;;;;;;70.50;12.70;;;11.80;99.90;;;12.31;97.94;98986.13;5148525;27;20458;-78
2022/10/19 01:20:05;;;;;;;73.93;11.43;;;11.80;99.90;;;12.37;97.52;98984.47;5155197;27;20502;-77
2022/10/19 01:22:55;;;;;;;181.33;18.10;;;11.90;99.90;;;12.14;97.60;98982.09;5145014;27;20454;-77
2022/10/19 01:25:24;;;;;;;31.83;9.30;;;11.80;99.90;;;12.38;97.70;98972.59;5123571;27;20471;-76
2022/10/19 01:28:18;;;;;;;185.07;20.73;;;11.80;99.90;;;12.28;97.13;98970.28;5129981;27;20462;-79
2022/10/19 01:30:51;;;;;;;39.33;9.50;;;11.80;99.90;;;12.37;96.97;98967.34;5121522;27;20458;-76
2022/10/19 01:33:32;;;;;;;248.00;23.67;;;11.80;99.90;;;12.16;96.57;98967.28;5129960;27;20433;-80
2022/10/19 01:36:11;;;;;;;71.53;11.33;;;11.80;99.90;;;12.05;97.29;98959.72;5119765;27;20497;-78
2022/10/19 01:38:48;;;;;;;103.40;13.00;;;11.80;99.90;;;12.07;96.92;98978.50;5130345;27;20458;-78
2022/10/19 01:41:20;;;;;;;69.57;10.93;;;11.80;99.90;;;12.05;98.06;98973.28;5129298;27;20462;-79
2022/10/19 01:43:55;;;;;;;141.03;14.40;;;11.70;99.90;;;12.06;97.93;98979.53;5123107;27;20463;-79
2022/10/19 01:46:30;;;;;;;44.93;10.27;;;11.70;99.90;;;12.13;97.16;98970.41;5127573;27;20514;-77
2022/10/19 01:49:04;;;;;;;129.37;13.03;;;11.70;99.90;;;12.08;97.62;98972.91;5124844;27;20489;-77
2022/10/19 01:51:34;;;;;;;302.00;22.80;;;11.60;99.90;;;11.93;97.68;98973.00;5130791;27;20559;-77
2022/10/19 01:54:07;;;;;;;123.93;15.20;;;11.50;99.90;;;12.05;97.54;98967.84;5123270;27;20501;-78
2022/10/19 01:56:37;;;;;;;169.97;17.97;;;11.60;99.90;;;11.93;97.47;98964.88;5123013;27;20802;-78
2022/10/19 01:59:08;;;;;;;87.07;10.67;;;11.50;99.90;;;11.97;96.43;98965.31;5119858;27;20511;-77
2022/10/19 02:01:42;;;;;;;213.43;19.83;;;11.50;99.90;;;11.89;97.32;98950.88;5126118;27;20539;-78
2022/10/19 02:04:11;;;;;;;210.57;19.00;;;11.50;99.90;;;11.88;97.30;98949.22;5127246;27;20457;-78
2022/10/19 02:06:39;;;;;;;251.27;21.10;;;11.50;99.90;;;11.68;98.03;98948.28;5122647;27;20466;-76
2022/10/19 02:09:06;;;;;;;256.93;23.17;;;11.40;99.90;;;11.45;99.17;98952.13;5126339;27;20456;-76
2022/10/19 02:11:36;;;;;;;321.53;25.13;;;11.30;99.90;;;11.66;99.17;98947.66;5113578;27;20449;-77
2022/10/19 02:14:10;;;;;;;59.53;9.87;;;11.30;99.90;;;11.80;98.94;98957.53;5118176;27;20459;-78
2022/10/19 02:16:44;;;;;;;151.83;16.90;;;11.40;99.90;;;11.93;98.38;98940.50;5126713;27;20546;-77
2022/10/19 02:19:15;;;;;;;426.63;33.60;;;11.40;99.90;;;11.97;98.15;98943.66;5126097;27;20450;-77
2022/10/19 02:21:43;;;;;;;85.57;13.10;;;11.50;99.90;;;12.01;98.66;98931.34;5125856;27;20460;-78
2022/10/19 02:24:09;;;;;;;197.57;19.87;;;11.50;99.90;;;11.89;98.63;98923.00;5123952;27;21025;-77
2022/10/19 02:26:38;;;;;;;302.77;29.37;;;11.50;99.90;;;12.09;98.63;98928.50;5122469;27;20451;-78
2022/10/19 02:29:05;;;;;;;176.17;24.50;;;11.60;99.90;;;12.02;98.42;98924.94;5117997;27;20508;-78
2022/10/19 02:31:33;;;;;;;229.07;27.90;;;11.60;99.90;;;12.04;98.79;98914.72;5136525;27;20456;-80
2022/10/19 02:34:02;;;;;;;237.00;23.07;;;11.70;99.90;;;12.17;98.77;98917.47;5142297;27;21034;-78
2022/10/19 02:36:29;;;;;;;256.10;26.43;;;11.80;99.90;;;12.12;98.40;98916.41;5126357;27;20446;-78
2022/10/19 02:38:56;;;;;;;121.70;16.37;;;11.80;99.90;;;12.09;98.80;98900.59;5124628;27;20528;-77
2022/10/19 02:41:29;;;;;;;234.57;22.30;;;11.70;99.90;;;12.32;98.51;98921.91;5127292;27;20990;-77
2022/10/19 02:44:04;;;;;;;390.30;38.67;;;11.80;99.90;;;12.24;99.33;98927.53;5121064;27;21122;-78
2022/10/19 02:46:38;;;;;;;294.83;31.43;;;11.80;99.90;;;12.41;98.93;98927.97;5125820;27;20482;-78
2022/10/19 02:49:10;;;;;;;285.47;27.60;;;12.00;99.90;;;12.29;98.96;98927.72;5123300;27;20512;-79
2022/10/19 02:51:39;;;;;;;425.50;37.17;;;11.90;99.90;;;12.23;99.23;98913.13;5127567;27;20556;-76
2022/10/19 02:54:08;;;;;;;304.83;31.50;;;12.00;99.90;;;12.43;98.95;98918.59;5123856;27;20485;-78
2022/10/19 02:56:36;;;;;;;359.77;35.90;;;12.00;99.90;;;12.35;99.61;98921.47;5120522;27;20438;-77
2022/10/19 02:59:03;;;;;;;212.23;25.33;;;12.00;99.90;;;12.42;99.28;98922.34;5124542;27;20459;-79
2022/10/19 03:01:31;;;;;;;60.83;13.20;;;12.00;99.90;;;12.16;98.81;98861.63;5123640;27;20460;-77
2022/10/19 03:03:58;;;;;;;105.27;13.70;;;12.10;99.90;;;11.90;98.04;98879.47;5123738;27;20451;-77
2022/10/19 03:06:26;;;;;;;45.90;10.50;;;11.90;99.90;;;12.39;98.71;98917.34;5123034;27;20475;-77
2022/10/19 03:08:54;;;;;;;28.33;10.60;;;11.90;99.90;;;12.45;97.87;98916.50;5121509;27;20443;-77
2022/10/19 03:11:21;;;;;;;33.43;10.60;;;11.90;99.90;;;12.47;96.48;98919.84;5124420;27;20500;-76
2022/10/19 03:13:48;;;;;;;20.10;9.10;;;11.90;99.90;;;12.15;95.37;98840.19;5135633;27;20459;-75
2022/10/19 03:16:15;;;;;;;168.03;23.50;;;12.00;99.90;;;12.34;95.97;98892.72;5138772;27;21014;-77
2022/10/19 03:18:43;;;;;;;61.70;13.07;;;11.90;99.90;;;12.32;97.03;98908.34;5147198;27;20438;-77
2022/10/19 03:21:13;;;;;;;64.27;11.70;;;11.80;99.90;;;12.39;96.73;98917.34;5126028;27;20476;-75
2022/10/19 03:23:42;;;;;;;40.33;10.53;;;11.90;99.90;;;12.36;96.57;98893.38;5121977;27;20479;-77
2022/10/19 03:26:14;;;;;;;31.10;9.10;;;11.90;99.90;;;12.49;96.22;98908.81;5125139;27;20499;-78
2022/10/19 03:28:41;;;;;;;104.17;14.53;;;11.90;99.90;;;12.24;96.96;98903.97;5122228;27;20450;-77
2022/10/19 03:31:09;;;;;;;91.63;15.30;;;11.90;99.90;;;12.28;97.78;98915.22;5123325;28;20500;-76
2022/10/19 03:33:36;;;;;;;185.47;23.40;;;11.90;99.90;;;12.24;98.45;98906.66;5134772;28;20491;-77
2022/10/19 03:36:24;;;;;;;215.23;25.10;;;11.90;99.90;;;12.36;97.94;98900.66;5135581;28;20438;-77
2022/10/19 03:38:55;;;;;;;49.67;11.80;;;12.00;99.90;;;12.38;97.85;98899.41;5133820;27;20460;-78
2022/10/19 03:41:24;;;;;;;58.93;13.07;;;12.00;99.90;;;12.39;97.85;98905.66;5127046;28;20468;-77
2022/10/19 03:43:52;;;;;;;13.20;8.70;;;12.00;99.90;;;12.52;98.46;98915.72;5128527;27;20463;-76
2022/10/19 03:46:20;;;;;;;38.70;11.10;;;12.00;99.90;;;12.48;97.34;98899.00;5129208;27;20470;-76
2022/10/19 03:48:48;;;;;;;40.47;11.80;;;12.00;99.90;;;12.48;97.67;98907.16;5129691;28;20454;-78
2022/10/19 03:51:19;;;;;;;62.93;11.93;;;12.00;99.90;;;12.21;98.65;98903.53;5146387;27;20923;-77
2022/10/19 03:53:47;;;;;;;29.87;10.57;;;12.00;99.90;;;12.36;98.69;98915.06;5147109;27;20443;-77
2022/10/19 03:56:18;;;;;;;76.37;13.03;;;11.90;99.90;;;12.37;98.62;98910.44;5112648;28;20485;-78
2022/10/19 03:58:47;;;;;;;23.70;10.03;;;11.90;99.90;;;12.49;98.55;98916.94;5116274;28;20504;-78
2022/10/19 04:01:17;;;;;;;37.33;11.47;;;12.00;99.90;;;12.51;98.12;98908.59;5117635;27;20940;-78
2022/10/19 04:03:45;;;;;;;66.57;11.50;;;12.00;99.90;;;12.40;97.29;98908.19;5150140;27;20842;-80
2022/10/19 04:06:16;;;;;;;31.17;9.20;;;12.00;99.90;;;12.45;96.36;98916.50;5125935;27;20485;-80
2022/10/19 04:08:45;;;;;;;68.37;9.13;;;12.00;99.90;;;12.33;96.41;98891.91;5108666;28;20459;-77
2022/10/19 04:11:17;;;;;;;24.90;7.97;;;12.00;99.90;;;12.37;96.89;98907.75;5115985;28;20554;-77
2022/10/19 04:13:44;;;;;;;47.13;8.73;;;11.90;99.90;;;12.05;97.12;98902.84;5138184;27;20459;-78
2022/10/19 04:16:14;;;;;;;30.13;8.30;;;11.80;99.90;;;12.12;97.34;98890.19;5122553;27;20776;-78
2022/10/19 04:18:41;;;;;;;22.60;7.60;;;11.80;99.90;;;12.16;97.34;98896.03;5114677;27;20494;-78
2022/10/19 04:21:22;;;;;;;74.27;13.37;;;11.70;99.90;;;12.10;96.99;98897.69;5127116;27;20458;-78
2022/10/19 04:23:50;;;;;;;51.23;10.43;;;11.70;99.90;;;12.20;98.04;98902.72;5124784;28;20522;-78
2022/10/19 04:26:19;;;;;;;44.37;9.63;;;11.70;99.90;;;12.32;96.56;98911.91;5125756;27;20929;-78
2022/10/19 04:28:47;;;;;;;39.17;8.30;;;11.80;99.90;;;12.19;95.56;98901.84;5119031;28;20454;-78
2022/10/19 04:31:14;;;;;;;20.90;7.47;;;11.80;99.90;;;12.14;95.98;98898.94;5120159;27;20473;-78
2022/10/19 04:33:42;;;;;;;10.83;6.30;;;11.70;99.90;;;12.21;96.27;98907.09;5120233;27;20465;-77
2022/10/19 04:36:11;;;;;;;33.73;8.37;;;11.70;99.90;;;12.07;97.26;98908.09;5119908;27;20493;-77
2022/10/19 04:38:39;;;;;;;25.43;8.20;;;11.60;99.90;;;12.22;96.24;98916.88;5129850;27;20454;-77
2022/10/19 04:41:09;;;;;;;46.30;10.50;;;11.70;99.90;;;12.02;96.62;98905.97;5125617;27;21005;-77
2022/10/19 04:43:41;;;;;;;62.77;11.27;;;11.60;99.90;;;12.07;97.19;98908.94;5127824;27;20496;-78
2022/10/19 04:46:11;;;;;;;33.57;8.50;;;11.70;99.90;;;12.12;97.33;98897.47;5124427;27;20478;-78
2022/10/19 04:48:40;;;;;;;42.63;11.07;;;11.70;99.90;;;12.01;96.89;98890.72;5123054;27;20750;-77
2022/10/19 04:51:08;;;;;;;34.07;10.23;;;11.60;99.90;;;12.17;96.88;98906.66;5138347;27;20458;-77
2022/10/19 04:53:37;;;;;;;116.37;16.33;;;11.70;99.90;;;11.81;97.41;98883.38;5145810;27;21098;-79
2022/10/19 04:56:07;;;;;;;37.43;9.80;;;11.70;99.90;;;12.08;98.05;98899.75;5125693;27;20457;-80
2022/10/19 04:58:34;;;;;;;39.73;12.17;;;11.70;99.90;;;12.25;97.46;98915.66;5132714;27;20458;-77
2022/10/19 05:01:09;;;;;;;42.83;11.30;;;11.80;99.90;;;12.22;97.14;98894.38;5117059;27;20447;-76
2022/10/19 05:03:37;;;;;;;425.50;31.97;;;11.80;99.90;;;11.80;99.53;98892.53;5110998;28;20454;-74
2022/10/19 05:06:05;;;;;;;455.27;31.63;;;11.70;99.90;;;11.97;99.95;98894.91;5119358;27;20528;-76
2022/10/19 05:08:33;;;;;;;216.87;21.53;;;11.70;99.90;;;11.99;99.98;98890.97;5124541;27;20486;-72
2022/10/19 05:11:06;;;;;;;119.77;21.13;;;11.70;99.90;;;12.01;99.64;98888.03;5133764;27;20472;-77
2022/10/19 05:13:34;;;;;;;234.97;22.73;;;11.70;99.90;;;12.00;99.95;98886.34;5120383;27;20506;-75
2022/10/19 05:16:06;;;;;;;78.13;11.40;;;11.70;99.90;;;12.01;97.99;98874.47;5116525;27;20455;-71
2022/10/19 05:18:35;;;;;;;129.43;14.03;;;11.70;99.90;;;11.84;98.09;98882.97;5121622;27;20450;-71
2022/10/19 05:21:05;;;;;;;60.77;9.07;;;11.60;99.90;;;11.86;97.43;98880.88;5120762;27;20504;-71
2022/10/19 05:23:33;;;;;;;91.93;11.77;;;11.50;99.90;;;11.68;97.06;98883.31;5119802;27;20630;-71
2022/10/19 05:26:03;;;;;;;55.17;9.00;;;11.40;99.90;;;11.57;97.49;98885.56;5119911;27;20478;-71
2022/10/19 05:28:31;;;;;;;54.33;8.73;;;11.30;99.90;;;11.50;97.32;98886.56;5118774;27;20469;-73
2022/10/19 05:31:07;;;;;;;59.53;9.27;;;11.20;99.90;;;11.51;97.13;98889.06;5118049;27;20535;-73
2022/10/19 05:33:37;;;;;;;36.13;6.73;;;11.20;99.90;;;11.55;97.22;98894.94;5117869;27;20452;-73
2022/10/19 05:36:18;;;;;;;45.50;8.30;;;11.20;99.90;;;11.53;96.27;98887.00;5124727;27;21036;-74
2022/10/19 05:38:47;;;;;;;60.77;8.80;;;11.20;99.90;;;11.29;97.21;98881.03;5124871;27;21007;-73
2022/10/19 05:41:15;;;;;;;50.27;8.53;;;11.10;99.90;;;11.37;97.90;98898.97;5121328;27;20454;-72
2022/10/19 05:43:43;;;;;;;52.00;8.40;;;11.10;99.90;;;11.43;97.31;98897.34;5120332;27;20756;-74
2022/10/19 05:46:13;;;;;;;43.33;8.33;;;11.10;99.90;;;11.49;97.79;98891.16;5117327;27;20504;-73
2022/10/19 05:48:42;;;;;;;44.33;8.47;;;11.20;99.90;;;11.66;97.32;98901.63;5117916;27;20503;-73
2022/10/19 05:51:12;;;;;;;51.80;9.20;;;11.20;99.90;;;11.54;96.83;98907.63;5120844;27;20453;-73
2022/10/19 05:53:40;;;;;;;44.23;8.80;;;11.20;99.90;;;11.53;95.92;98905.94;5130178;27;20479;-73
2022/10/19 05:56:12;;;;;;;75.30;8.50;;;11.20;99.90;;;11.50;96.91;98903.66;5135235;27;20457;-73
2022/10/19 05:58:39;;;;;;;43.03;7.50;;;11.20;99.90;;;11.41;97.44;98910.25;5137217;27;20449;-73
2022/10/19 06:01:07;;;;;;;54.50;9.07;;;11.10;99.90;;;11.47;96.93;98904.06;5129698;27;20522;-74
2022/10/19 06:03:34;;;;;;;45.10;8.13;;;11.10;99.90;;;11.55;96.23;98906.56;5117311;27;20586;-73
2022/10/19 06:06:05;;;;;;;64.73;11.20;;;11.10;99.90;;;11.57;97.12;98907.22;5117444;27;20503;-73
2022/10/19 06:08:33;;;;;;;95.87;13.20;;;11.20;99.90;;;11.61;96.42;98910.34;5123298;27;20458;-73
2022/10/19 06:11:08;;;;;;;45.67;9.93;;;11.20;99.90;;;11.60;97.12;98909.53;5127387;27;20460;-72
2022/10/19 06:13:36;;;;;;;34.00;9.13;;;11.20;99.90;;;11.70;97.13;98913.72;5131706;27;20868;-73
2022/10/19 06:16:04;;;;;;;59.63;11.30;;;11.20;99.90;;;11.38;95.79;98848.41;5121114;27;20458;-73
2022/10/19 06:18:32;;;;;;;59.23;10.70;;;11.40;99.90;;;11.45;95.70;98919.66;5111395;27;20454;-71
2022/10/19 06:21:04;;;;;;;88.37;13.37;;;11.30;99.90;;;11.41;96.23;98924.63;5138393;27;20486;-73
2022/10/19 06:23:32;;;;;;;75.00;13.13;;;11.20;99.90;;;11.57;96.36;98920.75;5128122;27;20462;-73
2022/10/19 06:26:01;;;;;;;93.60;16.67;;;11.20;99.90;;;11.59;96.34;98924.06;5119490;27;20510;-73
2022/10/19 06:28:29;;;;;;;68.27;14.47;;;11.20;99.90;;;11.58;96.90;98927.00;5119258;27;20482;-74
2022/10/19 06:30:58;;;;;;;44.17;14.33;;;11.20;99.90;;;11.79;96.34;98928.78;5121099;27;20519;-74
2022/10/19 06:33:25;;;;;;;103.90;19.23;;;11.30;99.90;;;11.68;95.51;98929.34;5121154;27;20512;-73
2022/10/19 06:35:54;;;;;;;32.93;10.07;;;11.40;99.90;;;11.62;96.39;98934.53;5117592;27;20457;-73
2022/10/19 06:38:22;;;;;;;67.57;15.87;;;11.30;99.90;;;11.70;96.57;98932.69;5133310;27;20454;-74
2022/10/19 06:40:49;;;;;;;89.97;12.87;;;11.40;99.90;;;11.88;95.28;98938.38;5132639;27;20525;-73
2022/10/19 06:43:16;;;;;;;49.50;8.70;;;11.50;99.90;;;11.77;95.65;98931.69;5122500;27;20458;-72
2022/10/19 06:45:44;;;;;;;35.60;6.93;;;11.50;99.90;;;11.82;95.12;98933.78;5124529;27;20453;-73
2022/10/19 06:48:11;;;;;;;12.50;4.70;;;11.50;99.90;;;11.79;93.75;98934.19;5128406;27;20944;-73
2022/10/19 06:50:38;;;;;;;19.60;5.43;;;11.40;99.90;;;11.77;94.10;98938.97;5125330;27;20459;-72
2022/10/19 06:53:05;;;;;;;58.60;8.17;;;11.40;99.90;;;11.76;94.83;98929.19;5119883;27;20446;-73
2022/10/19 06:55:34;;;;;;;20.70;4.67;;;11.40;99.90;;;11.85;93.38;98936.09;5125552;27;20467;-74
2022/10/19 06:58:01;;;;;;;47.33;8.37;;;11.50;99.90;;;11.92;93.14;98941.53;5117186;27;20834;-72
2022/10/19 07:00:29;;;;;;;43.00;6.47;;;11.50;99.90;;;11.96;93.52;98934.66;5121615;27;20474;-73
2022/10/19 07:02:58;;;;;;;20.83;4.97;;;11.50;99.90;;;12.08;93.83;98928.72;5127251;27;20450;-72
2022/10/19 07:05:25;;;;;;;23.17;6.10;;;11.50;99.90;;;11.80;93.50;98938.56;5117402;27;20458;-72
2022/10/19 07:07:53;;;;;;;49.17;7.90;;;11.50;99.90;;;12.06;93.48;98936.22;5119950;27;20513;-75
2022/10/19 07:10:20;;;;;;;42.20;7.00;;;11.60;99.90;;;12.03;92.81;98907.66;5119015;27;20827;-73
2022/10/19 07:12:48;;;;;;;24.40;5.57;;;11.70;99.90;;;12.26;92.14;98936.28;5118216;27;20843;-73
2022/10/19 07:15:16;;;;;;;42.10;6.20;;;11.80;99.90;;;12.08;92.60;98924.16;5114284;27;20511;-73
2022/10/19 07:17:43;;;;;;;45.07;6.87;;;11.80;99.90;;;12.10;92.92;98932.91;5121568;27;20904;-73
2022/10/19 07:20:11;;;;;;;62.77;7.80;;;11.80;99.90;;;12.26;92.37;98937.09;5120749;27;20537;-71
2022/10/19 07:22:38;;;;;;;72.40;7.83;;;11.80;99.90;;;12.30;91.65;98948.38;5123108;27;20454;-72
2022/10/19 07:25:06;;;;;;;23.30;6.17;;;11.90;99.90;;;12.38;91.92;98952.78;5118143;27;20458;-74
2022/10/19 07:27:37;;;;;;;34.47;5.87;;;12.00;99.90;;;12.43;90.99;98945.69;5117823;27;20480;-72
2022/10/19 07:30:07;;;;;;;42.03;7.60;;;12.00;99.90;;;12.60;90.19;98942.59;5129521;27;20475;-70
2022/10/19 07:32:34;;;;;;;41.40;6.43;;;12.10;99.90;;;12.71;89.53;98946.56;5132082;27;20478;-72
2022/10/19 07:35:02;;;;;;;57.00;8.50;;;12.30;99.90;;;12.69;89.43;98952.22;5123985;27;22485;-74
2022/10/19 07:37:29;;;;;;;10.37;5.50;;;12.30;99.90;;;12.97;90.69;98951.22;5120992;28;20817;-72
2022/10/19 07:39:56;;;;;;;33.83;6.53;;;12.40;99.90;;;13.08;88.42;98962.44;5119377;28;20546;-73
2022/10/19 07:42:23;;;;;;;96.13;9.60;;;12.60;99.90;;;12.89;87.38;98962.25;5117529;28;20464;-72
2022/10/19 07:44:50;;;;;;;108.63;10.20;;;12.50;99.90;;;12.85;87.81;98953.69;5117136;27;20475;-72
2022/10/19 07:47:19;;;;;;;32.13;5.90;;;12.50;99.90;;;13.03;86.92;98961.22;5121454;28;20559;-73
2022/10/19 07:49:46;;;;;;;42.27;6.93;;;12.60;99.90;;;13.07;86.19;98956.22;5111963;28;20552;-72
2022/10/19 07:52:14;;;;;;;43.57;6.53;;;12.70;99.90;;;13.18;84.49;98960.16;5098328;28;20493;-71
2022/10/19 07:54:41;;;;;;;42.43;7.27;;;12.80;99.90;;;13.20;84.64;98955.38;5120357;27;20471;-74
2022/10/19 07:57:11;;;;;;;13.80;5.50;;;12.80;99.90;;;13.11;85.32;98956.59;5112240;28;20958;-72
2022/10/19 07:59:38;;;;;;;6.20;4.00;;;12.70;99.90;;;13.16;84.63;98964.97;5120055;27;20957;-72
2022/10/19 08:02:08;;;;;;;33.00;6.60;;;12.80;99.90;;;13.04;84.79;98962.03;5120096;27;20450;-72
2022/10/19 08:04:38;;;;;;;42.73;6.40;;;12.70;99.90;;;13.22;84.75;98958.69;5114789;27;20778;-72
2022/10/19 08:07:05;;;;;;;16.30;4.90;;;12.70;99.90;;;13.40;83.54;98965.34;5138345;27;20485;-72
2022/10/19 08:09:32;;;;;;;26.57;5.70;;;12.80;99.90;;;13.50;83.31;98971.22;5123610;27;20760;-73
2022/10/19 08:11:59;;;;;;;24.67;6.13;;;12.90;99.90;;;13.57;83.19;98966.63;5127986;27;20740;-72
2022/10/19 08:14:27;;;;;;;39.73;6.67;;;13.00;99.70;;;13.35;82.56;98968.72;5127279;27;20507;-72
2022/10/19 08:16:54;;;;;;;9.23;5.57;;;12.90;99.00;;;13.51;83.29;98972.91;5149163;27;20478;-72
2022/10/19 08:19:22;;;;;;;33.77;6.43;;;13.00;99.60;;;13.42;82.73;98963.25;5128269;27;20507;-72
2022/10/19 08:21:51;;;;;;;45.47;7.60;;;12.90;98.70;;;13.14;84.35;98969.78;5144604;27;20462;-71
2022/10/19 08:24:20;;;;;;;39.93;5.73;;;12.90;99.40;;;13.45;83.30;98968.31;5121272;27;20560;-72
2022/10/19 08:26:49;;;;;;;23.53;5.77;;;12.90;99.30;;;13.51;83.19;98972.91;5126684;27;20562;-73
2022/10/19 08:29:20;;;;;;;37.47;6.60;;;13.00;98.80;;;13.49;82.08;98958.72;5123020;27;20452;-72
2022/10/19 08:31:49;;;;;;;21.50;5.47;;;13.00;97.70;;;13.43;82.14;98963.09;5123066;27;20481;-72
2022/10/19 08:34:16;;;;;;;9.80;5.33;;;13.10;96.90;;;13.32;84.37;98969.97;5122608;27;20444;-72
2022/10/19 08:36:43;;;;;;;21.07;5.80;;;13.00;98.70;;;13.18;84.07;98952.84;5130368;27;20579;-72
2022/10/19 08:39:13;;;;;;;33.67;6.60;;;13.00;98.70;;;13.30;83.05;98960.34;5124523;27;20841;-72
2022/10/19 08:41:56;;;;;;;23.93;5.70;;;13.00;97.70;;;13.16;84.25;98973.94;5128569;27;20445;-72
2022/10/19 08:45:02;;;;;;;12.13;5.50;;;12.90;99.20;;;13.26;83.20;98969.97;5120504;27;20461;-70
2022/10/19 08:47:52;;;;;;;27.37;5.60;;;12.90;98.10;;;13.24;83.52;98966.63;5129608;27;20474;-72
2022/10/19 08:50:24;;;;;;;26.23;5.20;;;12.80;98.50;;;13.35;82.77;98960.59;5121909;27;20508;-72
2022/10/19 08:52:59;;;;;;;25.87;6.40;;;12.90;98.90;;;13.07;83.26;98955.38;5127917;27;20455;-72
2022/10/19 08:55:41;;;;;;;63.87;8.87;;;12.80;97.40;;;12.85;84.07;98955.56;5114232;27;20458;-71
2022/10/19 08:58:26;;;;;;;24.23;5.77;;;12.70;97.70;;;12.75;84.71;98959.50;5126709;27;20490;-73
2022/10/19 09:01:00;;;;;;;33.57;6.17;;;12.70;99.50;;;13.09;83.96;98956.84;5121459;27;20468;-72
2022/10/19 09:03:37;;;;;;;14.83;5.73;;;12.80;99.60;;;12.98;84.04;98962.88;5125063;27;20457;-71
2022/10/19 09:06:19;;;;;;;14.13;6.20;;;12.80;98.40;;;13.14;84.19;98972.50;5124981;27;20506;-71
2022/10/19 09:08:47;;;;;;;6.43;5.80;;;12.80;99.60;;;13.51;83.30;98983.75;5121262;27;20460;-71
2022/10/19 09:11:20;;;;;;;6.30;5.47;;;13.00;99.70;;;13.76;82.19;98972.22;5128473;27;20504;-72
2022/10/19 09:13:50;;;;;;;7.10;6.00;;;13.20;98.00;;;13.67;82.25;98971.63;5126626;27;20464;-72
2022/10/19 09:16:20;;;;;;;7.10;5.80;;;13.30;97.20;;;13.75;80.71;98978.72;5115893;27;20455;-71
2022/10/19 09:18:48;;;;;;;8.17;6.23;;;13.30;95.70;;;13.55;82.55;98976.84;5128351;27;20456;-72
2022/10/19 09:21:19;;;;;;;8.67;6.93;;;13.20;97.10;;;13.82;82.25;98981.41;5144161;27;20453;-72
2022/10/19 09:23:55;;;;;;;7.67;6.87;;;13.40;97.30;;;13.86;81.67;98972.59;5129506;27;20480;-72
2022/10/19 09:26:29;;;;;;;9.13;7.20;;;13.50;96.80;;;13.92;80.86;98956.50;5126312;27;20488;-73
2022/10/19 09:29:01;;;;;;;8.10;6.43;;;13.50;95.80;;;13.83;80.63;98981.19;5133472;27;20449;-71
2022/10/19 09:31:32;;;;;;;10.63;7.07;;;13.60;95.00;;;13.98;80.37;98980.09;5130499;27;21129;-72
2022/10/19 09:34:03;;;;;;;8.90;6.80;;;13.60;95.30;;;14.05;80.96;98985.50;5128225;27;20516;-71
2022/10/19 09:36:40;;;;;;;8.47;7.03;;;13.60;95.60;;;14.09;80.96;98990.31;5137471;27;20454;-72
2022/10/19 09:39:11;;;;;;;7.07;5.80;;;13.60;95.60;;;14.41;80.41;98984.94;5121871;27;20505;-72
2022/10/19 09:41:45;;;;;;;8.20;7.13;;;13.80;96.20;;;14.37;79.12;98978.28;5123322;27;20455;-72
2022/10/19 09:44:13;;;;;;;7.83;6.87;;;13.90;94.70;;;14.51;79.13;98991.81;5120748;27;21267;-72
2022/10/19 09:46:50;;;;;;;8.07;7.27;;;14.10;94.30;;;14.63;78.28;98990.03;5120203;27;20790;-73
2022/10/19 09:49:19;;;;;;;8.20;7.30;;;14.20;93.60;;;14.49;78.89;98994.72;5134727;27;20461;-72
2022/10/19 09:51:51;;;;;;;10.70;7.57;;;14.20;93.30;;;13.67;79.89;98922.75;5139256;27;20458;-72
2022/10/19 09:54:34;;;;;;;9.53;7.90;;;14.00;93.50;;;14.21;80.26;98986.91;5122570;27;21154;-71
2022/10/19 09:57:05;;;;;;;11.00;8.80;;;14.00;94.10;;;13.77;82.43;98970.34;5125580;27;20458;-72
2022/10/19 09:59:36;;;;;;;9.40;7.90;;;13.80;95.40;;;14.25;80.83;98971.84;5121523;27;20452;-71
2022/10/19 10:02:16;;;;;;;10.67;7.63;;;13.90;95.00;;;14.62;79.16;98966.63;5120881;27;20448;-72
2022/10/19 10:04:47;;;;;;;11.53;9.17;;;14.10;94.50;;;14.37;80.32;98972.84;5104759;27;20453;-71
2022/10/19 10:07:18;;;;;;;15.23;10.13;;;14.10;94.20;;;14.45;79.26;98955.44;5120655;27;20479;-71
2022/10/19 10:09:45;;;;;;;10.50;8.90;;;14.20;93.90;;;14.61;78.66;98964.13;5121870;27;20498;-71
2022/10/19 10:12:16;;;;;;;10.40;9.27;;;14.30;93.30;;;14.76;78.21;98963.84;5121708;27;20544;-71
2022/10/19 10:14:44;;;;;;;11.00;9.30;;;14.40;93.20;;;14.80;78.90;98973.25;5121227;27;20500;-71
2022/10/19 10:17:17;;;;;;;11.53;9.90;;;14.40;93.70;;;14.90;78.15;98973.56;5121238;27;20950;-72
2022/10/19 10:20:04;;;;;;;14.17;9.73;;;14.50;93.30;;;14.72;77.00;98966.19;5118976;27;20447;-73
2022/10/19 10:22:33;;;;;;;13.93;10.23;;;14.50;92.30;;;15.02;77.51;98966.38;5122391;27;20554;-72
2022/10/19 10:25:01;;;;;;;10.07;8.87;;;14.60;92.50;;;14.84;76.93;98960.88;5121189;27;20576;-71